ADDS METAR Data INFO
IDs: Format: Raw Decoded Include TAF

Data at: 0708 UTC 19 Oct 2017

KXPY 190655Z AUTO 07007KT 10SM CLR 23/19 A3013 RMK A01
KXPY 190635Z AUTO 08009KT 10SM CLR 23/19 A3013 RMK A01
KXPY 190615Z AUTO 08008KT 10SM FEW024 22/18 A3014 RMK A01
KXPY 190555Z AUTO 07010KT 10SM FEW033 SCT040 22/18 A3015 RMK A01
KXPY 190535Z AUTO 07009KT 10SM FEW026 SCT033 BKN040 22/18 A3015 RMK A01
KXPY 190515Z AUTO 06007KT 10SM CLR 22/18 A3016 RMK A01
KXPY 190455Z AUTO 06008KT 10SM FEW040 22/18 A3016 RMK A01
KXPY 190435Z AUTO 07008KT 10SM SCT039 22/17 A3017 RMK A01
KXPY 190415Z AUTO 06007KT 10SM BKN038 22/16 A3017 RMK A01
KXPY 190355Z AUTO 05008KT 10SM SCT037 22/14 A3017 RMK A01
KXPY 190335Z AUTO 06007KT 10SM SCT040 22/14 A3017 RMK A01
KXPY 190315Z AUTO 06009KT 10SM BKN040 22/14 A3018 RMK A01
KXPY 190255Z AUTO 06007G12KT 10SM BKN039 22/15 A3018 RMK A01
KXPY 190235Z AUTO 06008KT 10SM BKN038 22/15 A3018 RMK A01
KXPY 190215Z AUTO 06010G15KT 10SM BKN038 22/15 A3017 RMK A01
KXPY 190155Z AUTO 06011KT 10SM FEW038 22/15 A3017 RMK A01
KXPY 190135Z AUTO 06011KT 10SM FEW038 23/16 A3017 RMK A01
KXPY 190115Z AUTO 06013KT 10SM CLR 23/16 A3016 RMK A01
KXPY 190055Z AUTO 06012KT 10SM FEW038 23/16 A3016 RMK A01
KXPY 190035Z AUTO 06010KT 10SM SCT038 23/16 A3016 RMK A01
KXPY 190015Z AUTO 06010KT 10SM CLR 23/16 A3015 RMK A01
KXPY 182355Z AUTO 06011KT 10SM FEW031 23/17 A3014 RMK A01
KXPY 182335Z AUTO 07010KT 10SM SCT031 23/17 A3013 RMK A01
KXPY 182315Z AUTO 07013KT 10SM BKN032 24/18 A3013 RMK A01
KXPY 182255Z AUTO 07013KT 10SM BKN032 24/18 A3012 RMK A01
KXPY 182235Z AUTO 07014KT 10SM BKN033 24/18 A3012 RMK A01
KXPY 182215Z AUTO 06012KT 10SM SCT034 25/18 A3012 RMK A01
KXPY 182155Z AUTO 07010G18KT 10SM FEW034 25/18 A3012 RMK A01
KXPY 182135Z AUTO 07011G16KT 10SM SCT034 25/17 A3012 RMK A01
KXPY 182115Z AUTO 07011KT 10SM FEW034 25/17 A3012 RMK A01
KXPY 182055Z AUTO 07010G16KT 10SM CLR 26/16 A3013 RMK A01
KXPY 182035Z AUTO 07012KT 10SM CLR 26/16 A3013 RMK A01
KXPY 182015Z AUTO 08011KT 10SM CLR 26/16 A3012 RMK A01
KXPY 181955Z AUTO 06010KT 10SM CLR 26/15 A3013 RMK A01
KXPY 181935Z AUTO 08010G16KT 10SM CLR 26/16 A3013 RMK A01
KXPY 181915Z AUTO 08009G16KT 10SM 26/16 A3013 RMK A01
KXPY 181855Z AUTO 07012G18KT 10SM CLR 26/16 A3014 RMK A01
KXPY 181835Z AUTO 08012KT 10SM 26/16 A3015 RMK A01
KXPY 181805Z AUTO 07011KT 10SM CLR 26/17 A3016 RMK A01
KXPY 181755Z AUTO 08011G17KT 10SM CLR 26/17 A3016 RMK A01
KXPY 181735Z AUTO 07013KT 10SM CLR 26/17 A3016 RMK A01
KXPY 181715Z AUTO 06013KT 10SM CLR 26/17 A3016 RMK A01
KXPY 181655Z AUTO 08011G16KT 10SM CLR 26/18 A3017 RMK A01
KXPY 181635Z AUTO 06012KT 10SM FEW031 26/18 A3017 RMK A01
KXPY 181615Z AUTO 06011KT 10SM CLR 25/19 A3017 RMK A01
KXPY 181555Z AUTO 05013KT 10SM CLR 25/20 A3018 RMK A01
KXPY 181535Z AUTO 04015KT 10SM CLR 24/20 A3017 RMK A01
KXPY 181515Z AUTO 04014KT 10SM CLR 24/20 A3017 RMK A01
KXPY 181455Z AUTO 04013KT 10SM CLR 23/20 A3017 RMK A01
KXPY 181435Z AUTO 04013G19KT 10SM CLR 23/19 A3017 RMK A01
KXPY 181415Z AUTO 04015KT 10SM CLR 23/19 A3016 RMK A01
KXPY 181355Z AUTO 04012G20KT 10SM CLR 23/19 A3016 RMK A01
KXPY 181335Z AUTO 04012KT 10SM CLR 22/19 A3016 RMK A01
KXPY 181315Z AUTO 04012KT 10SM CLR 22/19 A3015 RMK A01
KXPY 181255Z AUTO 03010KT 10SM FEW038 22/19 A3015 RMK A01
KXPY 181235Z AUTO 02008KT 10SM CLR 21/19 A3015 RMK A01
KXPY 181215Z AUTO 02009KT 10SM FEW039 21/19 A3014 RMK A01
KXPY 181155Z AUTO 02008KT 10SM FEW039 21/19 A3014 RMK A01
KXPY 181135Z AUTO 03009KT 10SM CLR 21/19 A3014 RMK A01
KXPY 181115Z AUTO 02007KT 10SM CLR 21/19 A3014 RMK A01
KXPY 181055Z AUTO 01009KT 10SM CLR 21/19 A3013 RMK A01
KXPY 181035Z AUTO 01007KT 10SM CLR 21/19 A3013 RMK A01
KXPY 181015Z AUTO 36008KT 10SM CLR 21/19 A3012 RMK A01
KXPY 180955Z AUTO 02009KT 10SM CLR 21/19 A3012 RMK A01
KXPY 180935Z AUTO 02008KT 10SM BKN034 21/19 A3011 RMK A01
KXPY 180915Z AUTO 01008KT 10SM BKN034 21/19 A3011 RMK A01
KXPY 180855Z AUTO 03008KT 10SM CLR 21/19 A3011 RMK A01
KXPY 180835Z AUTO 04009KT 10SM CLR 21/19 A3011 RMK A01
KXPY 180815Z AUTO 03008KT 10SM FEW042 21/19 A3012 RMK A01
KXPY 180755Z AUTO 03008KT 10SM BKN041 21/19 A3012 RMK A01
KXPY 180735Z AUTO 02008KT 10SM OVC039 21/19 A3013 RMK A01
KXPY 180715Z AUTO 02006KT 10SM OVC039 21/19 A3013 RMK A01
KXPY 180655Z AUTO 03005KT 10SM OVC039 22/19 A3013 RMK A01
KXPY 180635Z AUTO 02008KT 10SM OVC038 22/19 A3013 RMK A01
KXPY 180615Z AUTO 03009KT 10SM OVC037 22/19 A3014 RMK A01
KXPY 180555Z AUTO 05006KT 10SM BKN035 BKN042 23/17 A3014 RMK A01
KXPY 180535Z AUTO 06007KT 10SM SCT032 BKN042 23/17 A3014 RMK A01
KXPY 180515Z AUTO 05007G13KT 10SM FEW032 SCT041 23/17 A3015 RMK A01
KXPY 180455Z AUTO 06009G15KT 10SM CLR 23/17 A3014 RMK A01
KXPY 180435Z AUTO 06011G17KT 10SM CLR 23/16 A3015 RMK A01
KXPY 180415Z AUTO 07012KT 10SM CLR 23/16 A3015 RMK A01
KXPY 180355Z AUTO 07012G18KT 10SM SCT035 23/16 A3015 RMK A01
KXPY 180335Z AUTO 08013G21KT 10SM BKN035 23/16 A3016 RMK A01
KXPY 180315Z AUTO 07013KT 10SM BKN034 23/16 A3016 RMK A01
KXPY 180255Z AUTO 07012KT 10SM BKN032 22/17 A3016 RMK A01
KXPY 180235Z AUTO 07014KT 10SM BKN030 22/17 A3015 RMK A01
KXPY 180215Z AUTO 06012KT 10SM SCT029 BKN033 22/17 A3015 RMK A01
KXPY 180155Z AUTO 06012KT 10SM SCT030 22/17 A3015 RMK A01
KXPY 180135Z AUTO 06012G19KT 10SM CLR 22/17 A3014 RMK A01
KXPY 180115Z AUTO 06012KT 10SM CLR 22/16 A3014 RMK A01
KXPY 180055Z AUTO 06011G17KT 10SM FEW026 FEW031 22/17 A3014 RMK A01
KXPY 180035Z AUTO 06011G17KT 10SM BKN024 BKN029 22/18 A3014 RMK A01
KXPY 180015Z AUTO 04015KT 10SM OVC025 22/18 A3013 RMK A01
KXPY 172355Z AUTO 04013KT 10SM OVC024 22/18 A3013 RMK A01
KXPY 172335Z AUTO 05009G17KT 10SM BKN025 22/18 A3013 RMK A01
KXPY 172315Z AUTO 04011G17KT 10SM BKN024 22/18 A3012 RMK A01
KXPY 172255Z AUTO 04012G19KT 10SM BKN024 22/17 A3012 RMK A01
KXPY 172235Z AUTO 04014KT 10SM OVC026 22/17 A3012 RMK A01
KXPY 172215Z AUTO 05012G19KT 10SM OVC027 23/17 A3012 RMK A01
KXPY 172155Z AUTO 04013KT 10SM BKN026 23/17 A3012 RMK A01
KXPY 172135Z AUTO 03013G18KT 10SM FEW025 23/17 A3012 RMK A01
KXPY 172115Z AUTO 03012G17KT 10SM SCT025 23/17 A3012 RMK A01
KXPY 172055Z AUTO 03013KT 10SM FEW024 23/16 A3012 RMK A01
KXPY 172035Z AUTO 03013G18KT 10SM SCT024 23/16 A3012 RMK A01
KXPY 172015Z AUTO 03011G18KT 10SM CLR 23/16 A3013 RMK A01
KXPY 171955Z AUTO 03010G17KT 10SM CLR 23/16 A3013 RMK A01
KXPY 171935Z AUTO 02012G17KT 10SM FEW023 22/16 A3013 RMK A01
KXPY 171915Z AUTO 03013G18KT 10SM FEW023 22/16 A3013 RMK A01